Terminal Aerodrome Forecast
Issued by NWS

Home | Current Version | Previous Version | Text Only | Print | Product List | Glossary On
Versions: 1 2 3 4 5 6 7 8 9 10 11 12
000
FTUS45 KABQ 240500 RRA
TAFSAF
TAF
KSAF 240540Z 2406/2506 34007KT P6SM SKC
     FM241730 31018G27KT P6SM SCT090 SCT150
     FM250200 35011KT P6SM SCT100=

USA.gov is the U.S. government's official web portal to all federal, state and local government web resources and services.